sensor_id;sensor_type;location;lat;lon;timestamp;temperature;humidity
25058;DHT22;13057;50.978;11.034;2022-10-16T00:01:32;16.40;99.90
25058;DHT22;13057;50.978;11.034;2022-10-16T00:04:00;16.40;99.90
25058;DHT22;13057;50.978;11.034;2022-10-16T00:06:27;16.40;99.90
25058;DHT22;13057;50.978;11.034;2022-10-16T00:08:54;16.40;99.90
25058;DHT22;13057;50.978;11.034;2022-10-16T00:11:22;16.40;99.90
25058;DHT22;13057;50.978;11.034;2022-10-16T00:13:50;16.40;99.90
25058;DHT22;13057;50.978;11.034;2022-10-16T00:16:16;16.40;99.90
25058;DHT22;13057;50.978;11.034;2022-10-16T00:18:43;16.30;99.90
25058;DHT22;13057;50.978;11.034;2022-10-16T00:21:14;16.30;99.90
25058;DHT22;13057;50.978;11.034;2022-10-16T00:23:40;16.30;99.90
25058;DHT22;13057;50.978;11.034;2022-10-16T00:26:09;16.30;99.90
25058;DHT22;13057;50.978;11.034;2022-10-16T00:28:36;16.30;99.90
25058;DHT22;13057;50.978;11.034;2022-10-16T00:31:05;16.30;99.90
25058;DHT22;13057;50.978;11.034;2022-10-16T00:33:31;16.20;99.90
25058;DHT22;13057;50.978;11.034;2022-10-16T00:35:58;16.20;99.90
25058;DHT22;13057;50.978;11.034;2022-10-16T00:38:24;16.20;99.90
25058;DHT22;13057;50.978;11.034;2022-10-16T00:40:50;16.20;99.90
25058;DHT22;13057;50.978;11.034;2022-10-16T00:43:36;16.20;99.90
25058;DHT22;13057;50.978;11.034;2022-10-16T00:46:05;16.20;99.90
25058;DHT22;13057;50.978;11.034;2022-10-16T00:48:31;16.10;99.90
25058;DHT22;13057;50.978;11.034;2022-10-16T00:50:58;16.10;99.90
25058;DHT22;13057;50.978;11.034;2022-10-16T00:53:25;16.10;99.90
25058;DHT22;13057;50.978;11.034;2022-10-16T00:55:51;16.10;99.90
25058;DHT22;13057;50.978;11.034;2022-10-16T00:58:17;16.10;99.90
25058;DHT22;13057;50.978;11.034;2022-10-16T01:00:43;16.00;99.90
25058;DHT22;13057;50.978;11.034;2022-10-16T01:03:29;16.00;99.90
25058;DHT22;13057;50.978;11.034;2022-10-16T01:06:11;16.00;99.90
25058;DHT22;13057;50.978;11.034;2022-10-16T01:11:34;16.00;99.90
25058;DHT22;13057;50.978;11.034;2022-10-16T01:14:09;15.90;99.90
25058;DHT22;13057;50.978;11.034;2022-10-16T01:16:46;15.90;99.90
25058;DHT22;13057;50.978;11.034;2022-10-16T01:19:26;15.90;99.90
25058;DHT22;13057;50.978;11.034;2022-10-16T01:21:58;15.80;99.90
25058;DHT22;13057;50.978;11.034;2022-10-16T01:24:39;15.80;99.90
25058;DHT22;13057;50.978;11.034;2022-10-16T01:27:12;15.80;99.90
25058;DHT22;13057;50.978;11.034;2022-10-16T01:29:45;15.70;99.90
25058;DHT22;13057;50.978;11.034;2022-10-16T01:32:23;15.70;99.90
25058;DHT22;13057;50.978;11.034;2022-10-16T01:34:57;15.60;99.90
25058;DHT22;13057;50.978;11.034;2022-10-16T01:37:36;15.60;99.90
25058;DHT22;13057;50.978;11.034;2022-10-16T01:40:07;15.50;99.90
25058;DHT22;13057;50.978;11.034;2022-10-16T01:42:42;15.50;99.90
25058;DHT22;13057;50.978;11.034;2022-10-16T01:45:10;15.40;99.90
25058;DHT22;13057;50.978;11.034;2022-10-16T01:47:39;15.40;99.90
25058;DHT22;13057;50.978;11.034;2022-10-16T01:50:07;15.40;99.90
25058;DHT22;13057;50.978;11.034;2022-10-16T01:52:37;15.40;99.90
25058;DHT22;13057;50.978;11.034;2022-10-16T01:55:06;15.30;99.90
25058;DHT22;13057;50.978;11.034;2022-10-16T01:57:34;15.30;99.90
25058;DHT22;13057;50.978;11.034;2022-10-16T02:00:05;15.20;99.90
25058;DHT22;13057;50.978;11.034;2022-10-16T02:02:33;15.20;99.90
25058;DHT22;13057;50.978;11.034;2022-10-16T02:05:08;15.20;99.90
25058;DHT22;13057;50.978;11.034;2022-10-16T02:07:35;15.10;99.90
25058;DHT22;13057;50.978;11.034;2022-10-16T02:10:01;15.10;99.90
25058;DHT22;13057;50.978;11.034;2022-10-16T02:12:31;15.10;99.90
25058;DHT22;13057;50.978;11.034;2022-10-16T02:14:57;15.00;99.90
25058;DHT22;13057;50.978;11.034;2022-10-16T02:17:23;15.00;99.90
25058;DHT22;13057;50.978;11.034;2022-10-16T02:19:52;15.00;99.90
25058;DHT22;13057;50.978;11.034;2022-10-16T02:22:28;15.00;99.90
25058;DHT22;13057;50.978;11.034;2022-10-16T02:25:01;14.90;99.90
25058;DHT22;13057;50.978;11.034;2022-10-16T02:27:35;15.00;99.90
25058;DHT22;13057;50.978;11.034;2022-10-16T02:30:10;15.00;99.90
25058;DHT22;13057;50.978;11.034;2022-10-16T02:32:41;15.00;99.90
25058;DHT22;13057;50.978;11.034;2022-10-16T02:35:08;15.00;99.90
25058;DHT22;13057;50.978;11.034;2022-10-16T02:37:35;15.00;99.90
25058;DHT22;13057;50.978;11.034;2022-10-16T02:40:01;15.10;99.90
25058;DHT22;13057;50.978;11.034;2022-10-16T02:42:35;15.10;99.90
25058;DHT22;13057;50.978;11.034;2022-10-16T02:45:01;15.00;99.90
25058;DHT22;13057;50.978;11.034;2022-10-16T02:47:26;15.10;99.90
25058;DHT22;13057;50.978;11.034;2022-10-16T02:49:52;15.00;99.90
25058;DHT22;13057;50.978;11.034;2022-10-16T02:52:18;15.00;99.90
25058;DHT22;13057;50.978;11.034;2022-10-16T02:54:44;15.00;99.90
25058;DHT22;13057;50.978;11.034;2022-10-16T02:57:10;15.00;99.90
25058;DHT22;13057;50.978;11.034;2022-10-16T02:59:37;15.00;99.90
25058;DHT22;13057;50.978;11.034;2022-10-16T03:02:03;15.00;99.90
25058;DHT22;13057;50.978;11.034;2022-10-16T03:04:29;15.00;99.90
25058;DHT22;13057;50.978;11.034;2022-10-16T03:06:54;14.90;99.90
25058;DHT22;13057;50.978;11.034;2022-10-16T03:09:20;14.90;99.90
25058;DHT22;13057;50.978;11.034;2022-10-16T03:11:46;14.90;99.90
25058;DHT22;13057;50.978;11.034;2022-10-16T03:14:12;14.90;99.90
25058;DHT22;13057;50.978;11.034;2022-10-16T03:16:38;14.90;99.90
25058;DHT22;13057;50.978;11.034;2022-10-16T03:19:04;14.90;99.90
25058;DHT22;13057;50.978;11.034;2022-10-16T03:21:29;14.90;99.90
25058;DHT22;13057;50.978;11.034;2022-10-16T03:23:55;14.90;99.90
25058;DHT22;13057;50.978;11.034;2022-10-16T03:26:21;14.80;99.90
25058;DHT22;13057;50.978;11.034;2022-10-16T03:28:47;14.80;99.90
25058;DHT22;13057;50.978;11.034;2022-10-16T03:31:13;14.80;99.90
25058;DHT22;13057;50.978;11.034;2022-10-16T03:33:38;14.80;99.90
25058;DHT22;13057;50.978;11.034;2022-10-16T03:36:04;14.80;99.90
25058;DHT22;13057;50.978;11.034;2022-10-16T03:38:30;14.80;99.90
25058;DHT22;13057;50.978;11.034;2022-10-16T03:40:56;14.80;99.90
25058;DHT22;13057;50.978;11.034;2022-10-16T03:43:22;14.80;99.90
25058;DHT22;13057;50.978;11.034;2022-10-16T03:45:49;14.80;99.90
25058;DHT22;13057;50.978;11.034;2022-10-16T03:48:15;14.80;99.90
25058;DHT22;13057;50.978;11.034;2022-10-16T03:50:41;14.70;99.90
25058;DHT22;13057;50.978;11.034;2022-10-16T03:53:07;14.70;99.90
25058;DHT22;13057;50.978;11.034;2022-10-16T03:55:33;14.70;99.90
25058;DHT22;13057;50.978;11.034;2022-10-16T03:58:00;14.70;99.90
25058;DHT22;13057;50.978;11.034;2022-10-16T04:00:26;14.70;99.90
25058;DHT22;13057;50.978;11.034;2022-10-16T04:02:52;14.70;99.90
25058;DHT22;13057;50.978;11.034;2022-10-16T04:05:18;14.80;99.90
25058;DHT22;13057;50.978;11.034;2022-10-16T04:07:44;14.80;99.90
25058;DHT22;13057;50.978;11.034;2022-10-16T04:10:10;14.80;99.90
25058;DHT22;13057;50.978;11.034;2022-10-16T04:12:36;14.80;99.90
25058;DHT22;13057;50.978;11.034;2022-10-16T04:15:01;14.80;99.90
25058;DHT22;13057;50.978;11.034;2022-10-16T04:17:27;14.90;99.90
25058;DHT22;13057;50.978;11.034;2022-10-16T04:19:53;14.90;99.90
25058;DHT22;13057;50.978;11.034;2022-10-16T04:22:19;14.90;99.90
25058;DHT22;13057;50.978;11.034;2022-10-16T04:24:45;14.90;99.90
25058;DHT22;13057;50.978;11.034;2022-10-16T04:27:10;14.90;99.90
25058;DHT22;13057;50.978;11.034;2022-10-16T04:29:36;14.90;99.90
25058;DHT22;13057;50.978;11.034;2022-10-16T04:32:02;14.90;99.90
25058;DHT22;13057;50.978;11.034;2022-10-16T04:34:28;14.90;99.90
25058;DHT22;13057;50.978;11.034;2022-10-16T04:36:54;14.90;99.90
25058;DHT22;13057;50.978;11.034;2022-10-16T04:39:20;14.90;99.90
25058;DHT22;13057;50.978;11.034;2022-10-16T04:41:46;14.90;99.90
25058;DHT22;13057;50.978;11.034;2022-10-16T04:44:12;14.90;99.90
25058;DHT22;13057;50.978;11.034;2022-10-16T04:46:37;14.90;99.90
25058;DHT22;13057;50.978;11.034;2022-10-16T04:49:03;14.90;99.90
25058;DHT22;13057;50.978;11.034;2022-10-16T04:51:29;15.00;99.90
25058;DHT22;13057;50.978;11.034;2022-10-16T04:53:55;14.90;99.90
25058;DHT22;13057;50.978;11.034;2022-10-16T04:56:21;15.00;99.90
25058;DHT22;13057;50.978;11.034;2022-10-16T04:58:47;15.00;99.90
25058;DHT22;13057;50.978;11.034;2022-10-16T05:01:13;15.00;99.90
25058;DHT22;13057;50.978;11.034;2022-10-16T05:03:39;14.90;99.90
25058;DHT22;13057;50.978;11.034;2022-10-16T05:06:06;15.00;99.90
25058;DHT22;13057;50.978;11.034;2022-10-16T05:08:32;15.00;99.90
25058;DHT22;13057;50.978;11.034;2022-10-16T05:10:58;15.00;99.90
25058;DHT22;13057;50.978;11.034;2022-10-16T05:13:24;14.90;99.90
25058;DHT22;13057;50.978;11.034;2022-10-16T05:15:49;15.00;99.90
25058;DHT22;13057;50.978;11.034;2022-10-16T05:18:16;15.00;99.90
25058;DHT22;13057;50.978;11.034;2022-10-16T05:20:42;15.00;99.90
25058;DHT22;13057;50.978;11.034;2022-10-16T05:23:08;15.00;99.90
25058;DHT22;13057;50.978;11.034;2022-10-16T05:25:36;15.00;99.90
25058;DHT22;13057;50.978;11.034;2022-10-16T05:28:02;15.00;99.90
25058;DHT22;13057;50.978;11.034;2022-10-16T05:30:28;15.10;99.90
25058;DHT22;13057;50.978;11.034;2022-10-16T05:32:54;15.10;99.90
25058;DHT22;13057;50.978;11.034;2022-10-16T05:35:20;15.10;99.90
25058;DHT22;13057;50.978;11.034;2022-10-16T05:37:47;15.10;99.90
25058;DHT22;13057;50.978;11.034;2022-10-16T05:40:14;15.10;99.90
25058;DHT22;13057;50.978;11.034;2022-10-16T05:42:40;15.10;99.90
25058;DHT22;13057;50.978;11.034;2022-10-16T05:45:08;15.10;99.90
25058;DHT22;13057;50.978;11.034;2022-10-16T05:47:34;15.00;99.90
25058;DHT22;13057;50.978;11.034;2022-10-16T05:50:00;15.00;99.90
25058;DHT22;13057;50.978;11.034;2022-10-16T05:52:27;15.00;99.90
25058;DHT22;13057;50.978;11.034;2022-10-16T05:54:52;15.00;99.90
25058;DHT22;13057;50.978;11.034;2022-10-16T05:57:18;15.00;99.90
25058;DHT22;13057;50.978;11.034;2022-10-16T05:59:44;15.00;99.90
25058;DHT22;13057;50.978;11.034;2022-10-16T06:02:13;15.00;99.90
25058;DHT22;13057;50.978;11.034;2022-10-16T06:04:39;15.00;99.90
25058;DHT22;13057;50.978;11.034;2022-10-16T06:07:04;14.90;99.90
25058;DHT22;13057;50.978;11.034;2022-10-16T06:09:30;14.90;99.90
25058;DHT22;13057;50.978;11.034;2022-10-16T06:11:56;14.90;99.90
25058;DHT22;13057;50.978;11.034;2022-10-16T06:14:22;14.90;99.90
25058;DHT22;13057;50.978;11.034;2022-10-16T06:16:48;15.00;99.90
25058;DHT22;13057;50.978;11.034;2022-10-16T06:19:14;15.00;99.90
25058;DHT22;13057;50.978;11.034;2022-10-16T06:21:42;15.10;99.90
25058;DHT22;13057;50.978;11.034;2022-10-16T06:24:08;15.10;99.90
25058;DHT22;13057;50.978;11.034;2022-10-16T06:26:33;15.20;99.90
25058;DHT22;13057;50.978;11.034;2022-10-16T06:29:00;15.20;99.90
25058;DHT22;13057;50.978;11.034;2022-10-16T06:31:26;15.30;99.90
25058;DHT22;13057;50.978;11.034;2022-10-16T06:33:54;15.30;99.90
25058;DHT22;13057;50.978;11.034;2022-10-16T06:36:21;15.40;99.90
25058;DHT22;13057;50.978;11.034;2022-10-16T06:38:47;15.40;99.90
25058;DHT22;13057;50.978;11.034;2022-10-16T06:41:16;15.40;99.90
25058;DHT22;13057;50.978;11.034;2022-10-16T06:43:42;15.50;99.90
25058;DHT22;13057;50.978;11.034;2022-10-16T06:46:11;15.50;99.90
25058;DHT22;13057;50.978;11.034;2022-10-16T06:48:38;15.50;99.90
25058;DHT22;13057;50.978;11.034;2022-10-16T06:51:08;15.50;99.90
25058;DHT22;13057;50.978;11.034;2022-10-16T06:53:36;15.60;99.90
25058;DHT22;13057;50.978;11.034;2022-10-16T06:56:10;15.60;99.90
25058;DHT22;13057;50.978;11.034;2022-10-16T06:58:36;15.70;99.90
25058;DHT22;13057;50.978;11.034;2022-10-16T07:01:02;15.70;99.90
25058;DHT22;13057;50.978;11.034;2022-10-16T07:03:28;15.80;99.90
25058;DHT22;13057;50.978;11.034;2022-10-16T07:05:54;15.80;99.90
25058;DHT22;13057;50.978;11.034;2022-10-16T07:08:20;15.90;99.90
25058;DHT22;13057;50.978;11.034;2022-10-16T07:10:46;15.90;99.90
25058;DHT22;13057;50.978;11.034;2022-10-16T07:13:11;15.90;99.90
25058;DHT22;13057;50.978;11.034;2022-10-16T07:15:40;16.00;99.90
25058;DHT22;13057;50.978;11.034;2022-10-16T07:18:06;16.00;99.90
25058;DHT22;13057;50.978;11.034;2022-10-16T07:20:33;16.10;99.90
25058;DHT22;13057;50.978;11.034;2022-10-16T07:22:58;16.10;99.90
25058;DHT22;13057;50.978;11.034;2022-10-16T07:25:24;16.20;99.90
25058;DHT22;13057;50.978;11.034;2022-10-16T07:27:50;16.20;99.90
25058;DHT22;13057;50.978;11.034;2022-10-16T07:30:16;16.30;99.90
25058;DHT22;13057;50.978;11.034;2022-10-16T07:32:42;16.30;99.90
25058;DHT22;13057;50.978;11.034;2022-10-16T07:35:07;16.30;99.90
25058;DHT22;13057;50.978;11.034;2022-10-16T07:37:33;16.40;99.90
25058;DHT22;13057;50.978;11.034;2022-10-16T07:39:59;16.40;99.90
25058;DHT22;13057;50.978;11.034;2022-10-16T07:42:27;16.40;99.90
25058;DHT22;13057;50.978;11.034;2022-10-16T07:44:54;16.50;99.90
25058;DHT22;13057;50.978;11.034;2022-10-16T07:47:20;16.50;99.90
25058;DHT22;13057;50.978;11.034;2022-10-16T07:49:46;16.60;99.90
25058;DHT22;13057;50.978;11.034;2022-10-16T07:52:11;16.70;99.90
25058;DHT22;13057;50.978;11.034;2022-10-16T07:54:37;16.70;99.90
25058;DHT22;13057;50.978;11.034;2022-10-16T07:57:03;16.70;99.90
25058;DHT22;13057;50.978;11.034;2022-10-16T07:59:29;16.80;99.90
25058;DHT22;13057;50.978;11.034;2022-10-16T08:01:54;16.90;99.90
25058;DHT22;13057;50.978;11.034;2022-10-16T08:04:20;16.90;99.90
25058;DHT22;13057;50.978;11.034;2022-10-16T08:06:46;16.90;99.90
25058;DHT22;13057;50.978;11.034;2022-10-16T08:09:12;16.90;99.90
25058;DHT22;13057;50.978;11.034;2022-10-16T08:11:38;16.90;99.90
25058;DHT22;13057;50.978;11.034;2022-10-16T08:14:03;17.00;99.90
25058;DHT22;13057;50.978;11.034;2022-10-16T08:16:29;17.00;99.90
25058;DHT22;13057;50.978;11.034;2022-10-16T08:18:55;17.10;99.90
25058;DHT22;13057;50.978;11.034;2022-10-16T08:21:22;17.20;99.90
25058;DHT22;13057;50.978;11.034;2022-10-16T08:23:50;17.20;99.90
25058;DHT22;13057;50.978;11.034;2022-10-16T08:26:16;17.20;99.90
25058;DHT22;13057;50.978;11.034;2022-10-16T08:28:41;17.30;99.90
25058;DHT22;13057;50.978;11.034;2022-10-16T08:31:11;17.40;99.90
25058;DHT22;13057;50.978;11.034;2022-10-16T08:33:38;17.40;99.90
25058;DHT22;13057;50.978;11.034;2022-10-16T08:36:06;17.50;99.90
25058;DHT22;13057;50.978;11.034;2022-10-16T08:38:33;17.60;99.90
25058;DHT22;13057;50.978;11.034;2022-10-16T08:41:17;17.70;99.90
25058;DHT22;13057;50.978;11.034;2022-10-16T08:44:16;17.80;99.90
25058;DHT22;13057;50.978;11.034;2022-10-16T08:49:31;17.90;99.90
25058;DHT22;13057;50.978;11.034;2022-10-16T08:51:57;18.00;99.90
25058;DHT22;13057;50.978;11.034;2022-10-16T08:54:32;18.00;99.90
25058;DHT22;13057;50.978;11.034;2022-10-16T08:57:11;18.30;99.90
25058;DHT22;13057;50.978;11.034;2022-10-16T08:59:37;18.60;99.90
25058;DHT22;13057;50.978;11.034;2022-10-16T09:02:18;18.70;99.90
25058;DHT22;13057;50.978;11.034;2022-10-16T09:05:01;18.60;99.90
25058;DHT22;13057;50.978;11.034;2022-10-16T09:07:33;18.60;99.90
25058;DHT22;13057;50.978;11.034;2022-10-16T09:10:26;18.60;99.90
25058;DHT22;13057;50.978;11.034;2022-10-16T09:13:03;18.70;99.90
25058;DHT22;13057;50.978;11.034;2022-10-16T09:16:39;18.70;99.90
25058;DHT22;13057;50.978;11.034;2022-10-16T09:18:42;18.70;99.90
25058;DHT22;13057;50.978;11.034;2022-10-16T09:21:20;18.70;99.90
25058;DHT22;13057;50.978;11.034;2022-10-16T09:23:47;18.70;99.90
25058;DHT22;13057;50.978;11.034;2022-10-16T09:26:14;18.70;99.90
25058;DHT22;13057;50.978;11.034;2022-10-16T09:28:42;18.70;99.90
25058;DHT22;13057;50.978;11.034;2022-10-16T09:31:15;18.70;99.90
25058;DHT22;13057;50.978;11.034;2022-10-16T09:33:42;18.80;99.90
25058;DHT22;13057;50.978;11.034;2022-10-16T09:36:09;18.80;99.90
25058;DHT22;13057;50.978;11.034;2022-10-16T09:38:36;18.90;99.90
25058;DHT22;13057;50.978;11.034;2022-10-16T09:41:17;18.90;99.90
25058;DHT22;13057;50.978;11.034;2022-10-16T09:43:52;19.00;99.90
25058;DHT22;13057;50.978;11.034;2022-10-16T09:46:29;19.00;99.90
25058;DHT22;13057;50.978;11.034;2022-10-16T09:48:58;19.00;99.90
25058;DHT22;13057;50.978;11.034;2022-10-16T09:51:31;19.10;99.90
25058;DHT22;13057;50.978;11.034;2022-10-16T09:54:11;19.10;99.90
25058;DHT22;13057;50.978;11.034;2022-10-16T09:56:38;19.10;99.90
25058;DHT22;13057;50.978;11.034;2022-10-16T09:59:12;19.20;99.90
25058;DHT22;13057;50.978;11.034;2022-10-16T10:01:41;19.20;99.90
25058;DHT22;13057;50.978;11.034;2022-10-16T10:04:08;19.20;99.90
25058;DHT22;13057;50.978;11.034;2022-10-16T10:06:43;19.30;99.90
25058;DHT22;13057;50.978;11.034;2022-10-16T10:09:21;19.30;99.90
25058;DHT22;13057;50.978;11.034;2022-10-16T10:11:50;19.30;99.90
25058;DHT22;13057;50.978;11.034;2022-10-16T10:14:30;19.40;99.90
25058;DHT22;13057;50.978;11.034;2022-10-16T10:17:15;19.30;99.90
25058;DHT22;13057;50.978;11.034;2022-10-16T10:19:54;19.40;99.90
25058;DHT22;13057;50.978;11.034;2022-10-16T10:22:28;19.40;99.90
25058;DHT22;13057;50.978;11.034;2022-10-16T10:27:32;19.40;99.90
25058;DHT22;13057;50.978;11.034;2022-10-16T10:30:23;19.40;99.90
25058;DHT22;13057;50.978;11.034;2022-10-16T10:33:05;19.50;99.90
25058;DHT22;13057;50.978;11.034;2022-10-16T10:35:45;19.40;99.90
25058;DHT22;13057;50.978;11.034;2022-10-16T10:38:30;19.50;99.90
25058;DHT22;13057;50.978;11.034;2022-10-16T10:43:52;19.50;99.90
25058;DHT22;13057;50.978;11.034;2022-10-16T10:46:35;19.50;99.90
25058;DHT22;13057;50.978;11.034;2022-10-16T10:52:11;19.50;99.90
25058;DHT22;13057;50.978;11.034;2022-10-16T10:54:48;19.50;99.90
25058;DHT22;13057;50.978;11.034;2022-10-16T10:57:28;19.50;99.90
25058;DHT22;13057;50.978;11.034;2022-10-16T11:00:05;19.40;99.90
25058;DHT22;13057;50.978;11.034;2022-10-16T11:02:40;19.40;99.90
25058;DHT22;13057;50.978;11.034;2022-10-16T11:05:23;19.40;99.90
25058;DHT22;13057;50.978;11.034;2022-10-16T11:07:59;19.40;99.90
25058;DHT22;13057;50.978;11.034;2022-10-16T11:10:42;19.30;99.90
25058;DHT22;13057;50.978;11.034;2022-10-16T11:13:20;19.30;99.90
25058;DHT22;13057;50.978;11.034;2022-10-16T11:15:51;19.20;99.90
25058;DHT22;13057;50.978;11.034;2022-10-16T11:18:24;19.20;99.90
25058;DHT22;13057;50.978;11.034;2022-10-16T11:20:57;19.10;99.90
25058;DHT22;13057;50.978;11.034;2022-10-16T11:23:28;19.10;99.90
25058;DHT22;13057;50.978;11.034;2022-10-16T11:26:00;19.00;99.90
25058;DHT22;13057;50.978;11.034;2022-10-16T11:28:39;18.90;99.90
25058;DHT22;13057;50.978;11.034;2022-10-16T11:31:16;18.90;99.90
25058;DHT22;13057;50.978;11.034;2022-10-16T11:33:55;18.80;99.90
25058;DHT22;13057;50.978;11.034;2022-10-16T11:36:25;18.80;99.90
25058;DHT22;13057;50.978;11.034;2022-10-16T11:39:08;18.80;99.90
25058;DHT22;13057;50.978;11.034;2022-10-16T11:41:45;18.80;99.90
25058;DHT22;13057;50.978;11.034;2022-10-16T11:44:27;18.80;99.90
25058;DHT22;13057;50.978;11.034;2022-10-16T11:47:23;18.80;99.90
25058;DHT22;13057;50.978;11.034;2022-10-16T11:49:55;18.80;99.90
25058;DHT22;13057;50.978;11.034;2022-10-16T11:52:28;18.80;99.90
25058;DHT22;13057;50.978;11.034;2022-10-16T11:55:05;18.80;99.90
25058;DHT22;13057;50.978;11.034;2022-10-16T11:57:45;18.80;99.90
25058;DHT22;13057;50.978;11.034;2022-10-16T12:00:24;18.70;99.90
25058;DHT22;13057;50.978;11.034;2022-10-16T12:03:18;18.70;99.90
25058;DHT22;13057;50.978;11.034;2022-10-16T12:06:09;18.60;99.90
25058;DHT22;13057;50.978;11.034;2022-10-16T12:08:37;18.60;99.90
25058;DHT22;13057;50.978;11.034;2022-10-16T12:11:20;18.60;99.90
25058;DHT22;13057;50.978;11.034;2022-10-16T12:13:47;18.60;99.90
25058;DHT22;13057;50.978;11.034;2022-10-16T12:16:22;18.50;99.90
25058;DHT22;13057;50.978;11.034;2022-10-16T12:18:49;18.50;99.90
25058;DHT22;13057;50.978;11.034;2022-10-16T12:21:16;18.60;99.90
25058;DHT22;13057;50.978;11.034;2022-10-16T12:23:51;18.60;99.90
25058;DHT22;13057;50.978;11.034;2022-10-16T12:26:27;18.60;99.90
25058;DHT22;13057;50.978;11.034;2022-10-16T12:28:54;18.70;99.90
25058;DHT22;13057;50.978;11.034;2022-10-16T12:31:21;18.70;99.90
25058;DHT22;13057;50.978;11.034;2022-10-16T12:33:58;18.60;99.90
25058;DHT22;13057;50.978;11.034;2022-10-16T12:36:30;18.60;99.90
25058;DHT22;13057;50.978;11.034;2022-10-16T12:38:57;18.60;99.90
25058;DHT22;13057;50.978;11.034;2022-10-16T12:41:34;18.60;99.90
25058;DHT22;13057;50.978;11.034;2022-10-16T12:44:01;18.60;99.90
25058;DHT22;13057;50.978;11.034;2022-10-16T12:46:39;18.50;99.90
25058;DHT22;13057;50.978;11.034;2022-10-16T12:51:53;18.50;99.90
25058;DHT22;13057;50.978;11.034;2022-10-16T12:54:22;18.50;99.90
25058;DHT22;13057;50.978;11.034;2022-10-16T12:57:00;18.60;99.90
25058;DHT22;13057;50.978;11.034;2022-10-16T12:59:42;18.60;99.90
25058;DHT22;13057;50.978;11.034;2022-10-16T13:05:21;18.70;99.90
25058;DHT22;13057;50.978;11.034;2022-10-16T13:08:05;18.70;99.90
25058;DHT22;13057;50.978;11.034;2022-10-16T13:10:42;18.70;99.90
25058;DHT22;13057;50.978;11.034;2022-10-16T13:13:40;18.80;99.90
25058;DHT22;13057;50.978;11.034;2022-10-16T13:16:27;18.80;99.90
25058;DHT22;13057;50.978;11.034;2022-10-16T13:19:11;18.90;99.90
25058;DHT22;13057;50.978;11.034;2022-10-16T13:21:55;18.80;99.90
25058;DHT22;13057;50.978;11.034;2022-10-16T13:27:29;18.90;99.90
25058;DHT22;13057;50.978;11.034;2022-10-16T13:30:11;18.90;99.90
25058;DHT22;13057;50.978;11.034;2022-10-16T13:32:44;19.00;99.90
25058;DHT22;13057;50.978;11.034;2022-10-16T13:35:26;19.00;99.90
25058;DHT22;13057;50.978;11.034;2022-10-16T13:38:05;19.00;99.90
25058;DHT22;13057;50.978;11.034;2022-10-16T13:40:31;19.00;99.90
25058;DHT22;13057;50.978;11.034;2022-10-16T13:43:00;19.10;99.90
25058;DHT22;13057;50.978;11.034;2022-10-16T13:45:26;19.10;99.90
25058;DHT22;13057;50.978;11.034;2022-10-16T13:48:04;19.20;99.90
25058;DHT22;13057;50.978;11.034;2022-10-16T13:50:30;19.20;99.90
25058;DHT22;13057;50.978;11.034;2022-10-16T13:53:06;19.20;99.90
25058;DHT22;13057;50.978;11.034;2022-10-16T13:55:32;19.30;99.90
25058;DHT22;13057;50.978;11.034;2022-10-16T13:58:08;19.30;99.90
25058;DHT22;13057;50.978;11.034;2022-10-16T14:00:34;19.30;99.90
25058;DHT22;13057;50.978;11.034;2022-10-16T14:03:04;19.30;99.90
25058;DHT22;13057;50.978;11.034;2022-10-16T14:05:31;19.40;99.90
25058;DHT22;13057;50.978;11.034;2022-10-16T14:07:58;19.30;99.90
25058;DHT22;13057;50.978;11.034;2022-10-16T14:10:27;19.30;99.90
25058;DHT22;13057;50.978;11.034;2022-10-16T14:12:59;19.40;99.90
25058;DHT22;13057;50.978;11.034;2022-10-16T14:15:26;19.40;99.90
25058;DHT22;13057;50.978;11.034;2022-10-16T14:17:52;19.40;99.90
25058;DHT22;13057;50.978;11.034;2022-10-16T14:20:21;19.40;99.90
25058;DHT22;13057;50.978;11.034;2022-10-16T14:23:00;19.40;99.90
25058;DHT22;13057;50.978;11.034;2022-10-16T14:25:30;19.50;99.90
25058;DHT22;13057;50.978;11.034;2022-10-16T14:28:03;19.40;99.90
25058;DHT22;13057;50.978;11.034;2022-10-16T14:30:31;19.50;99.90
25058;DHT22;13057;50.978;11.034;2022-10-16T14:32:59;19.40;99.90
25058;DHT22;13057;50.978;11.034;2022-10-16T14:35:34;19.40;99.90
25058;DHT22;13057;50.978;11.034;2022-10-16T14:38:03;19.40;99.90
25058;DHT22;13057;50.978;11.034;2022-10-16T14:40:32;19.40;99.90
25058;DHT22;13057;50.978;11.034;2022-10-16T14:42:59;19.40;99.90
25058;DHT22;13057;50.978;11.034;2022-10-16T14:45:31;19.40;99.90
25058;DHT22;13057;50.978;11.034;2022-10-16T14:48:01;19.40;99.90
25058;DHT22;13057;50.978;11.034;2022-10-16T14:50:28;19.40;99.90
25058;DHT22;13057;50.978;11.034;2022-10-16T14:52:54;19.40;99.90
25058;DHT22;13057;50.978;11.034;2022-10-16T14:55:20;19.40;99.90
25058;DHT22;13057;50.978;11.034;2022-10-16T14:57:47;19.40;99.90
25058;DHT22;13057;50.978;11.034;2022-10-16T15:00:20;19.40;99.90
25058;DHT22;13057;50.978;11.034;2022-10-16T15:02:48;19.40;99.90
25058;DHT22;13057;50.978;11.034;2022-10-16T15:05:21;19.40;99.90
25058;DHT22;13057;50.978;11.034;2022-10-16T15:07:48;19.40;99.90
25058;DHT22;13057;50.978;11.034;2022-10-16T15:10:16;19.40;99.90
25058;DHT22;13057;50.978;11.034;2022-10-16T15:12:42;19.40;99.90
25058;DHT22;13057;50.978;11.034;2022-10-16T15:15:30;19.40;99.90
25058;DHT22;13057;50.978;11.034;2022-10-16T15:17:57;19.50;99.90
25058;DHT22;13057;50.978;11.034;2022-10-16T15:20:27;19.60;99.90
25058;DHT22;13057;50.978;11.034;2022-10-16T15:22:54;19.60;99.90
25058;DHT22;13057;50.978;11.034;2022-10-16T15:25:33;19.60;99.90
25058;DHT22;13057;50.978;11.034;2022-10-16T15:28:00;19.50;99.90
25058;DHT22;13057;50.978;11.034;2022-10-16T15:30:27;19.50;99.90
25058;DHT22;13057;50.978;11.034;2022-10-16T15:32:53;19.50;99.90
25058;DHT22;13057;50.978;11.034;2022-10-16T15:35:19;19.50;99.90
25058;DHT22;13057;50.978;11.034;2022-10-16T15:37:47;19.50;99.90
25058;DHT22;13057;50.978;11.034;2022-10-16T15:40:14;19.40;99.90
25058;DHT22;13057;50.978;11.034;2022-10-16T15:42:40;19.30;99.90
25058;DHT22;13057;50.978;11.034;2022-10-16T15:45:07;19.30;99.90
25058;DHT22;13057;50.978;11.034;2022-10-16T15:47:34;19.20;99.90
25058;DHT22;13057;50.978;11.034;2022-10-16T15:49:59;19.10;99.90
25058;DHT22;13057;50.978;11.034;2022-10-16T15:52:25;19.10;99.90
25058;DHT22;13057;50.978;11.034;2022-10-16T15:54:51;19.00;99.90
25058;DHT22;13057;50.978;11.034;2022-10-16T15:57:17;19.00;99.90